• Join FlightAware (Why Join?)
  • Login
  • US Flag 
08:59AM EST


 

Airport Tracker/Info


-or-


 

Live Flight TrackerFlight Track Log ✈ XOJ552 ✈ 06-Jul-2013 ✈ TNCM / SXM - KPBI

Flight Track Log - Related Links

Times and Time Zones

All times are in EDT time to prevent confusion due to time zone crossing. See the XOJ552 flight status page for this flight to view local times or setup timezone preferences in your user account.

Time Position Orientation Groundspeed Altitude Reporting Facility
EDT Latitude Longitude Course Direction KTS MPH feet Rate Location/Type
12:06PM 17.9167 -63.0667 281° West 120 138 7,800  Level San Juan Center
12:07PM 17.8833 -63.1167 235° Southwest 230 265 11,000 2,640 Climbing San Juan Center
12:08PM 17.9167 -63.2000 293° West 290 334 13,100 1,980 Climbing San Juan Center
12:09PM 17.9500 -63.2833 293° West 340 391 15,000 1,680 Climbing San Juan Center
12:10PM 18.0000 -63.3833 298° West 380 437 16,600 2,100 Climbing San Juan Center
12:11PM 18.0333 -63.4833 289° West 380 437 19,200 2,520 Climbing San Juan Center
12:12PM 18.1531 -63.8115 281° West  Level FlightAware Approximate
12:12PM 18.0833 -63.6000 294° West 380 437 21,700  Level San Juan Center
12:13PM 18.1167 -63.7000 289° West 390 449 23,900 1,920 Climbing San Juan Center
12:14PM 18.1667 -63.8000 298° West 390 449 25,600 1,740 Climbing San Juan Center
12:15PM 18.2000 -63.9167 287° West 410 472 27,500 1,800 Climbing San Juan Center
12:16PM 18.2500 -64.0333 294° West 410 472 29,300 1,560 Climbing San Juan Center
12:17PM 18.2833 -64.1500 287° West 420 483 30,700 1,380 Climbing San Juan Center
12:18PM 18.3333 -64.2667 294° West 430 495 32,200 1,500 Climbing San Juan Center
12:19PM 18.3833 -64.3833 294° West 430 495 33,800 1,560 Climbing San Juan Center
12:20PM 18.4333 -64.5000 294° West 430 495 35,400 1,440 Climbing San Juan Center
12:21PM 18.4667 -64.6000 289° West 420 483 36,800 1,320 Climbing San Juan Center
12:22PM 18.5167 -64.7167 294° West 420 483 38,100 1,260 Climbing San Juan Center
12:23PM 18.5500 -64.8333 287° West 410 472 39,400 1,080 Climbing San Juan Center
12:24PM 18.6000 -64.9500 294° West 410 472 40,300 780 Climbing San Juan Center
12:25PM 18.6500 -65.0500 298° West 410 472 41,000 540 Climbing San Juan Center
12:26PM 18.6833 -65.1667 287° West 410 472 41,400 480 Climbing San Juan Center
12:27PM 18.7333 -65.2833 294° West 410 472 42,000 420 Climbing San Juan Center
12:28PM 18.7667 -65.4000 287° West 400 460 42,300 240 Climbing San Juan Center
12:29PM 18.8000 -65.5000 289° West 410 472 42,600 300 Climbing San Juan Center
12:30PM 18.8500 -65.6167 294° West 420 483 43,000 180 Climbing San Juan Center
12:31PM 18.9000 -65.7333 294° West 410 472 43,000  Level San Juan Center
12:32PM 18.9333 -65.8500 287° West 420 483 43,000  Level San Juan Center
12:33PM 18.9833 -65.9667 294° West 420 483 43,000  Level San Juan Center
12:34PM 19.0167 -66.0833 287° West 420 483 43,000  Level San Juan Center
12:35PM 19.0667 -66.2000 294° West 430 495 43,000  Level San Juan Center
12:36PM 19.1000 -66.3167 287° West 430 495 43,000  Level San Juan Center
12:37PM 19.1500 -66.4333 294° West 430 495 43,000  Level San Juan Center
12:38PM 19.2000 -66.5500 294° West 430 495 43,000  Level San Juan Center
12:39PM 19.2500 -66.6667 294° West 430 495 43,000  Level San Juan Center
12:40PM 19.2833 -66.7833 287° West 420 483 43,000  Level San Juan Center
12:41PM 19.3333 -66.9000 294° West 420 483 43,000  Level San Juan Center
12:42PM 19.3667 -67.0167 287° West 420 483 43,000  Level San Juan Center
12:43PM 19.4167 -67.1333 294° West 420 483 43,000  Level San Juan Center
12:44PM 19.4500 -67.2500 287° West 420 483 43,000  Level San Juan Center
12:45PM 19.5000 -67.3667 294° West 420 483 43,000  Level San Juan Center
12:47PM 19.5833 -67.6000 291° West 430 495 43,000  Level San Juan Center
12:48PM 19.6333 -67.7167 294° West 420 483 43,000  Level San Juan Center
12:50PM 19.6833 -67.9333 284° West 420 483 43,000  Level San Juan Center
12:51PM 19.7333 -68.0500 294° West 420 483 43,000  Level San Juan Center
12:52PM 19.7667 -68.1667 287° West 420 483 43,000  Level San Juan Center
12:54PM 19.8514 -68.3614 295° West 432 497 43,000  Level Miami Center
12:55PM 19.8931 -68.4800 291° West 432 497 43,000  Level Miami Center
12:56PM 19.9394 -68.6092 291° West 432 497 43,000  Level Miami Center
12:57PM 19.9764 -68.7147 290° West 432 497 43,000  Level Miami Center
12:58PM 20.0419 -68.8189 304° West 432 497 43,000  Level Miami Center
12:59PM 20.1100 -68.9250 304° West 432 497 43,000  Level Miami Center
01:00PM 20.1775 -69.0269 305° West 432 497 43,000  Level Miami Center
01:01PM 20.2450 -69.1311 305° West 424 488 43,000  Level Miami Center
01:02PM 20.3106 -69.2336 304° West 424 488 43,000  Level Miami Center
01:03PM 20.3781 -69.3381 305° West 424 488 43,000  Level Miami Center
01:04PM 20.4436 -69.4428 304° West 424 488 43,000  Level Miami Center
01:05PM 20.5108 -69.5472 305° West 424 488 43,000  Level Miami Center
01:06PM 20.5783 -69.6544 304° West 424 488 43,000  Level Miami Center
01:07PM 20.6458 -69.7592 305° West 424 488 43,000  Level Miami Center
01:08PM 20.7150 -69.8642 305° West 424 488 43,000  Level Miami Center
01:09PM 20.7803 -69.9714 303° West 424 488 43,000  Level Miami Center
01:10PM 20.8475 -70.0767 304° West 424 488 43,000  Level Miami Center
01:11PM 20.9147 -70.1842 304° West 429 494 43,000  Level Miami Center
01:12PM 20.9817 -70.2897 304° West 429 494 43,000  Level Miami Center
01:13PM 21.0508 -70.3975 305° West 429 494 43,000  Level Miami Center
01:14PM 21.1178 -70.5031 304° West 429 494 43,000  Level Miami Center
01:15PM 21.1872 -70.6153 304° West 434 499 43,000  Level Miami Center
01:16PM 21.2539 -70.7214 304° West 440 506 43,000  Level Miami Center
01:17PM 21.3228 -70.8317 304° West 440 506 43,000  Level Miami Center
01:18PM 21.3917 -70.9400 304° West 440 506 43,000  Level Miami Center
01:19PM 21.4628 -71.0481 305° West 450 518 43,000  Level Miami Center
01:20PM 21.5342 -71.1767 301° West 450 518 43,000  Level Miami Center
01:21PM 21.6072 -71.2872 305° West 449 517 43,000  Level Miami Center
01:22PM 21.6758 -71.3981 304° West 442 509 43,000  Level Miami Center
01:23PM 21.7422 -71.5072 303° West 442 509 43,000  Level Miami Center
01:24PM 21.8108 -71.6183 304° West 442 509 43,000  Level Miami Center
01:25PM 21.8792 -71.7275 304° West 447 514 43,000  Level Miami Center
01:26PM 21.9456 -71.8389 303° West 447 514 43,000  Level Miami Center
01:27PM 22.0158 -71.9481 305° West 447 514 43,000  Level Miami Center
01:28PM 22.0800 -72.0600 302° West 447 514 43,000  Level Miami Center
01:29PM 22.1436 -72.1583 305° West 447 514 43,000  Level Miami Center
01:30PM 22.2117 -72.2703 303° West 447 514 43,000  Level Miami Center
01:31PM 22.2778 -72.3847 302° West 447 514 43,000  Level Miami Center
01:32PM 22.3497 -72.4967 305° West 447 514 43,000  Level Miami Center
01:33PM 22.4178 -72.6089 303° West 447 514 43,000  Level Miami Center
01:34PM 22.4856 -72.7211 303° West 447 514 43,000  Level Miami Center
01:35PM 22.5556 -72.8381 303° West 452 520 43,000  Level Miami Center
01:36PM 22.6253 -72.9506 304° West 452 520 43,000  Level Miami Center
01:37PM 22.6931 -73.0678 302° West 452 520 43,000  Level Miami Center
01:38PM 22.7711 -73.1894 305° West 446 513 43,000  Level Miami Center
01:39PM 22.8408 -73.3069 303° West 451 519 43,000  Level Miami Center
01:40PM 22.9103 -73.4222 303° West 456 525 43,000  Level Miami Center
01:41PM 22.9797 -73.5400 303° West 456 525 43,000  Level Miami Center
01:42PM 23.0492 -73.6533 304° West 456 525 43,000  Level Miami Center
01:43PM 23.1164 -73.7711 302° West 456 525 43,000  Level Miami Center
01:44PM 23.1856 -73.8894 302° West 456 525 43,000  Level Miami Center
01:45PM 23.2567 -74.0075 303° West 461 531 43,000  Level Miami Center
01:46PM 23.3236 -74.1236 302° West 461 531 43,000  Level Miami Center
01:47PM 23.3969 -74.2419 304° West 467 537 43,000  Level Miami Center
01:48PM 23.4636 -74.3583 302° West 467 537 43,000  Level Miami Center
01:49PM 23.5344 -74.4772 303° West 467 537 43,000  Level Miami Center
01:50PM 23.6011 -74.5939 302° West 462 532 43,000  Level Miami Center
01:51PM 23.6717 -74.7128 303° West 468 539 43,000  Level Miami Center
01:52PM 23.7403 -74.8319 302° West 468 539 43,000  Level Miami Center
01:53PM 23.8108 -74.9511 303° West 468 539 43,000  Level Miami Center
01:54PM 23.8814 -75.0681 303° West 468 539 43,000  Level Miami Center
01:55PM 23.9494 -75.1900 301° West 468 539 43,000  Level Miami Center
01:56PM 24.0197 -75.3119 302° West 468 539 43,000  Level Miami Center
01:57PM 24.0878 -75.4294 302° West 468 539 43,000  Level Miami Center
01:58PM 24.1558 -75.5517 301° West 468 539 43,000  Level Miami Center
01:59PM 24.2258 -75.6694 303° West 468 539 43,000  Level Miami Center
02:00PM 24.2917 -75.7894 301° West 468 539 43,000  Level Miami Center
02:01PM 24.3592 -75.9122 301° West 468 539 43,000  Level Miami Center
02:02PM 24.4289 -76.0303 303° West 463 533 43,000  Level Miami Center
02:03PM 24.4944 -76.1508 301° West 463 533 43,000  Level Miami Center
02:04PM 24.5639 -76.2739 302° West 463 533 43,000  Level Miami Center
02:05PM 24.6247 -76.3742 304° West 463 533 43,000  Level Miami Center
02:06PM 24.6922 -76.4997 301° West 463 533 43,000  Level Miami Center
02:07PM 24.7592 -76.6186 302° West 463 533 43,000 -240 Level Miami Center
02:08PM 24.8283 -76.7397 302° West 463 533 42,600 -1,500 Descending Miami Center
02:09PM 24.8975 -76.8658 301° West 468 539 40,000 -2,580 Descending Miami Center
02:10PM 24.9664 -76.9872 302° West 468 539 37,500 -2,520 Descending Miami Center
02:11PM 25.0350 -77.1089 302° West 468 539 35,000 -2,520 Descending Miami Center
02:12PM 25.1039 -77.2328 302° West 468 539 32,500 -2,580 Descending Miami Center
02:13PM 25.1767 -77.3617 302° West 480 552 29,900 -2,280 Descending Miami Center
02:14PM 25.2492 -77.4953 301° West 499 574 28,000 -960 Descending Miami Center
02:15PM 25.3156 -77.6219 300° West 492 566 28,000  Level Miami Center
02:16PM 25.3839 -77.7467 301° West 486 559 28,000  Level Miami Center
02:17PM 25.4539 -77.8739 301° West 486 559 28,000 -660 Level Miami Center
02:18PM 25.5178 -77.9986 300° West 481 554 26,700 -1,200 Descending Miami Center
02:19PM 25.5919 -78.1308 302° West 470 541 25,600 -1,080 Descending Miami Center
02:20PM 25.6558 -78.2511 301° West 463 533 24,600 -1,020 Descending Miami Center
02:21PM 25.7236 -78.3719 302° West 463 533 23,600 -1,020 Descending Miami Center
02:22PM 25.7892 -78.4881 302° West 457 526 22,600 -1,020 Descending Miami Center
02:23PM 25.8525 -78.6092 300° West 452 520 21,600 -1,020 Descending Miami Center
02:24PM 25.9117 -78.7278 299° West 447 514 20,600 -840 Descending Miami Center
02:25PM 25.9750 -78.8419 302° West 442 509 20,000 -360 Descending Miami Center
02:26PM 26.0444 -78.9564 304° West 442 509 19,900 -1,200 Descending Miami Center
02:27PM 26.1097 -79.0664 303° West 437 503 17,700 -2,940 Descending Miami Center
02:28PM 26.1644 -79.1692 301° West 413 475 14,100 -3,240 Descending Miami Center
02:29PM 26.2131 -79.2675 299° West 392 451 11,300 -2,700 Descending Miami Center
02:30PM 26.2594 -79.3564 300° West 367 422 8,800 -2,340 Descending Miami Center
02:31PM 26.3083 -79.4361 304° West 328 377 6,700 -1,860 Descending Miami Center
02:32PM 26.3508 -79.5067 304° West 304 350 5,100 -900 Descending Miami Center
02:33PM 26.3994 -79.5914 303° West 304 350 5,000 -180 Descending Miami Center
02:34PM 26.4419 -79.6642 303° West 304 350 4,800 -540 Descending Miami Center
02:35PM 26.4903 -79.7514 302° West 304 350 4,000 -420 Descending Miami Center
02:36PM 26.5158 -79.8378 288° West 297 342 4,000  Level Miami Center
02:37PM 26.5347 -79.9289 283° West 292 336 4,000  Level Miami Center
02:38PM 26.5517 -80.0153 282° West 298 343 4,000  Level Miami Center
02:39PM 26.5686 -80.1039 282° West 293 337 4,000 -240 Level Miami Center
02:40PM 26.5833 -80.1878 281° West 293 337 3,600 -780 Descending Miami Center
02:41PM 26.6303 -80.2403 315° West 251 289 2,500 -1,140 Descending Miami Center
02:43PM 26.6832 -80.0956 68° East  Level Estimated
02:50PM 26.6832 -80.0956 222° Southwest  Level Estimated
02:51PM 26.6832 -80.0956 222° Southwest  Level Estimated
02:52PM 26.6832 -80.0956 222° Southwest  Level Estimated
02:53PM 26.6832 -80.0956 222° Southwest  Level Estimated